sensor_id;sensor_type;location;lat;lon;timestamp;P1;durP1;ratioP1;P2;durP2;ratioP2
83929;SDS011;73959;52.130;5.584;2024-01-16T00:01:22;7.35;;;2.28;;
83929;SDS011;73959;52.130;5.584;2024-01-16T00:03:48;12.23;;;3.45;;
83929;SDS011;73959;52.130;5.584;2024-01-16T00:06:14;15.07;;;2.50;;
83929;SDS011;73959;52.130;5.584;2024-01-16T00:08:40;8.93;;;2.90;;
83929;SDS011;73959;52.130;5.584;2024-01-16T00:11:06;10.15;;;2.47;;
83929;SDS011;73959;52.130;5.584;2024-01-16T00:13:32;12.10;;;2.63;;
83929;SDS011;73959;52.130;5.584;2024-01-16T00:15:58;9.23;;;1.95;;
83929;SDS011;73959;52.130;5.584;2024-01-16T00:18:27;11.10;;;1.95;;
83929;SDS011;73959;52.130;5.584;2024-01-16T00:21:02;12.32;;;2.45;;
83929;SDS011;73959;52.130;5.584;2024-01-16T00:23:28;9.45;;;2.15;;
83929;SDS011;73959;52.130;5.584;2024-01-16T00:26:00;12.48;;;2.33;;
83929;SDS011;73959;52.130;5.584;2024-01-16T00:28:26;9.40;;;2.30;;
83929;SDS011;73959;52.130;5.584;2024-01-16T00:30:52;11.45;;;1.90;;
83929;SDS011;73959;52.130;5.584;2024-01-16T00:33:18;10.45;;;2.05;;
83929;SDS011;73959;52.130;5.584;2024-01-16T00:35:44;7.32;;;2.22;;
83929;SDS011;73959;52.130;5.584;2024-01-16T00:38:10;17.95;;;3.20;;
83929;SDS011;73959;52.130;5.584;2024-01-16T00:40:36;8.65;;;2.10;;
83929;SDS011;73959;52.130;5.584;2024-01-16T00:43:02;16.63;;;2.30;;
83929;SDS011;73959;52.130;5.584;2024-01-16T00:45:28;9.65;;;2.55;;
83929;SDS011;73959;52.130;5.584;2024-01-16T00:47:53;11.00;;;2.25;;
83929;SDS011;73959;52.130;5.584;2024-01-16T00:50:19;13.15;;;2.40;;
83929;SDS011;73959;52.130;5.584;2024-01-16T00:52:45;7.70;;;2.08;;
83929;SDS011;73959;52.130;5.584;2024-01-16T00:55:11;9.27;;;2.17;;
83929;SDS011;73959;52.130;5.584;2024-01-16T00:57:37;7.60;;;2.05;;
83929;SDS011;73959;52.130;5.584;2024-01-16T01:00:04;9.90;;;2.10;;
83929;SDS011;73959;52.130;5.584;2024-01-16T01:02:30;9.63;;;2.63;;
83929;SDS011;73959;52.130;5.584;2024-01-16T01:04:56;6.47;;;2.00;;
83929;SDS011;73959;52.130;5.584;2024-01-16T01:07:22;7.10;;;2.15;;
83929;SDS011;73959;52.130;5.584;2024-01-16T01:09:50;10.20;;;2.45;;
83929;SDS011;73959;52.130;5.584;2024-01-16T01:12:16;6.68;;;2.10;;
83929;SDS011;73959;52.130;5.584;2024-01-16T01:14:42;10.75;;;2.30;;
83929;SDS011;73959;52.130;5.584;2024-01-16T01:17:08;10.65;;;2.10;;
83929;SDS011;73959;52.130;5.584;2024-01-16T01:19:34;8.43;;;2.10;;
83929;SDS011;73959;52.130;5.584;2024-01-16T01:22:00;11.60;;;2.28;;
83929;SDS011;73959;52.130;5.584;2024-01-16T01:24:26;8.27;;;1.88;;
83929;SDS011;73959;52.130;5.584;2024-01-16T01:26:52;12.00;;;2.20;;
83929;SDS011;73959;52.130;5.584;2024-01-16T01:29:17;11.13;;;1.98;;
83929;SDS011;73959;52.130;5.584;2024-01-16T01:31:46;8.73;;;2.10;;
83929;SDS011;73959;52.130;5.584;2024-01-16T01:34:13;10.02;;;2.28;;
83929;SDS011;73959;52.130;5.584;2024-01-16T01:36:39;11.43;;;2.50;;
83929;SDS011;73959;52.130;5.584;2024-01-16T01:39:05;12.77;;;2.85;;
83929;SDS011;73959;52.130;5.584;2024-01-16T01:41:31;10.63;;;2.20;;
83929;SDS011;73959;52.130;5.584;2024-01-16T01:43:57;7.20;;;2.40;;
83929;SDS011;73959;52.130;5.584;2024-01-16T01:46:23;8.75;;;2.03;;
83929;SDS011;73959;52.130;5.584;2024-01-16T01:48:49;9.93;;;2.42;;
83929;SDS011;73959;52.130;5.584;2024-01-16T01:51:17;5.35;;;1.85;;
83929;SDS011;73959;52.130;5.584;2024-01-16T01:53:44;6.80;;;2.38;;
83929;SDS011;73959;52.130;5.584;2024-01-16T01:56:11;12.02;;;2.38;;
83929;SDS011;73959;52.130;5.584;2024-01-16T01:58:40;13.10;;;2.50;;
83929;SDS011;73959;52.130;5.584;2024-01-16T02:01:06;7.22;;;2.15;;
83929;SDS011;73959;52.130;5.584;2024-01-16T02:03:45;10.65;;;1.70;;
83929;SDS011;73959;52.130;5.584;2024-01-16T02:06:12;8.95;;;2.00;;
83929;SDS011;73959;52.130;5.584;2024-01-16T02:08:41;12.23;;;2.28;;
83929;SDS011;73959;52.130;5.584;2024-01-16T02:11:08;10.73;;;2.00;;
83929;SDS011;73959;52.130;5.584;2024-01-16T02:13:34;7.90;;;2.17;;
83929;SDS011;73959;52.130;5.584;2024-01-16T02:16:01;8.88;;;1.67;;
83929;SDS011;73959;52.130;5.584;2024-01-16T02:18:28;8.65;;;1.92;;
83929;SDS011;73959;52.130;5.584;2024-01-16T02:20:56;7.53;;;1.88;;
83929;SDS011;73959;52.130;5.584;2024-01-16T02:23:27;9.65;;;1.83;;
83929;SDS011;73959;52.130;5.584;2024-01-16T02:25:53;4.90;;;1.30;;
83929;SDS011;73959;52.130;5.584;2024-01-16T02:28:20;11.00;;;1.80;;
83929;SDS011;73959;52.130;5.584;2024-01-16T02:30:46;6.35;;;1.40;;
83929;SDS011;73959;52.130;5.584;2024-01-16T02:33:12;8.05;;;1.80;;
83929;SDS011;73959;52.130;5.584;2024-01-16T02:35:37;7.00;;;1.80;;
83929;SDS011;73959;52.130;5.584;2024-01-16T02:38:04;3.47;;;1.15;;
83929;SDS011;73959;52.130;5.584;2024-01-16T02:40:30;6.15;;;1.50;;
83929;SDS011;73959;52.130;5.584;2024-01-16T02:42:56;5.10;;;1.10;;
83929;SDS011;73959;52.130;5.584;2024-01-16T02:45:22;6.10;;;1.30;;
83929;SDS011;73959;52.130;5.584;2024-01-16T02:47:48;3.75;;;1.25;;
83929;SDS011;73959;52.130;5.584;2024-01-16T02:50:14;7.70;;;1.80;;
83929;SDS011;73959;52.130;5.584;2024-01-16T02:52:40;10.02;;;1.90;;
83929;SDS011;73959;52.130;5.584;2024-01-16T02:55:06;5.28;;;1.45;;
83929;SDS011;73959;52.130;5.584;2024-01-16T02:57:32;8.43;;;1.73;;
83929;SDS011;73959;52.130;5.584;2024-01-16T02:59:58;7.15;;;2.00;;
83929;SDS011;73959;52.130;5.584;2024-01-16T03:02:24;7.65;;;2.13;;
83929;SDS011;73959;52.130;5.584;2024-01-16T03:04:50;5.93;;;1.60;;
83929;SDS011;73959;52.130;5.584;2024-01-16T03:07:16;8.30;;;2.63;;
83929;SDS011;73959;52.130;5.584;2024-01-16T03:09:42;8.40;;;2.10;;
83929;SDS011;73959;52.130;5.584;2024-01-16T03:12:07;4.95;;;2.00;;
83929;SDS011;73959;52.130;5.584;2024-01-16T03:14:33;9.10;;;2.20;;
83929;SDS011;73959;52.130;5.584;2024-01-16T03:17:04;7.05;;;1.70;;
83929;SDS011;73959;52.130;5.584;2024-01-16T03:19:31;7.78;;;2.25;;
83929;SDS011;73959;52.130;5.584;2024-01-16T03:21:57;11.93;;;2.25;;
83929;SDS011;73959;52.130;5.584;2024-01-16T03:24:23;11.70;;;2.10;;
83929;SDS011;73959;52.130;5.584;2024-01-16T03:26:49;7.78;;;2.13;;
83929;SDS011;73959;52.130;5.584;2024-01-16T03:29:15;5.88;;;2.08;;
83929;SDS011;73959;52.130;5.584;2024-01-16T03:31:41;9.18;;;2.03;;
83929;SDS011;73959;52.130;5.584;2024-01-16T03:34:07;6.05;;;2.00;;
83929;SDS011;73959;52.130;5.584;2024-01-16T03:36:35;5.35;;;1.85;;
83929;SDS011;73959;52.130;5.584;2024-01-16T03:39:01;8.57;;;1.77;;
83929;SDS011;73959;52.130;5.584;2024-01-16T03:41:27;4.60;;;1.50;;
83929;SDS011;73959;52.130;5.584;2024-01-16T03:43:53;5.90;;;1.40;;
83929;SDS011;73959;52.130;5.584;2024-01-16T03:46:22;6.85;;;2.03;;
83929;SDS011;73959;52.130;5.584;2024-01-16T03:48:48;9.23;;;1.30;;
83929;SDS011;73959;52.130;5.584;2024-01-16T03:51:14;2.95;;;1.88;;
83929;SDS011;73959;52.130;5.584;2024-01-16T03:53:40;7.35;;;2.38;;
83929;SDS011;73959;52.130;5.584;2024-01-16T03:56:06;7.32;;;2.05;;
83929;SDS011;73959;52.130;5.584;2024-01-16T03:58:32;7.30;;;1.40;;
83929;SDS011;73959;52.130;5.584;2024-01-16T04:00:58;7.47;;;1.00;;
83929;SDS011;73959;52.130;5.584;2024-01-16T04:03:24;7.22;;;1.30;;
83929;SDS011;73959;52.130;5.584;2024-01-16T04:05:50;5.07;;;1.23;;
83929;SDS011;73959;52.130;5.584;2024-01-16T04:08:16;5.32;;;1.20;;
83929;SDS011;73959;52.130;5.584;2024-01-16T04:10:42;3.60;;;1.20;;
83929;SDS011;73959;52.130;5.584;2024-01-16T04:13:08;3.92;;;1.00;;
83929;SDS011;73959;52.130;5.584;2024-01-16T04:15:37;3.40;;;1.70;;
83929;SDS011;73959;52.130;5.584;2024-01-16T04:18:03;2.75;;;1.73;;
83929;SDS011;73959;52.130;5.584;2024-01-16T04:20:29;3.50;;;1.30;;
83929;SDS011;73959;52.130;5.584;2024-01-16T04:22:56;5.15;;;1.70;;
83929;SDS011;73959;52.130;5.584;2024-01-16T04:25:22;5.85;;;1.67;;
83929;SDS011;73959;52.130;5.584;2024-01-16T04:27:48;6.10;;;1.77;;
83929;SDS011;73959;52.130;5.584;2024-01-16T04:30:14;3.30;;;1.20;;
83929;SDS011;73959;52.130;5.584;2024-01-16T04:32:40;5.18;;;1.50;;
83929;SDS011;73959;52.130;5.584;2024-01-16T04:35:07;7.50;;;1.67;;
83929;SDS011;73959;52.130;5.584;2024-01-16T04:37:33;4.53;;;1.52;;
83929;SDS011;73959;52.130;5.584;2024-01-16T04:39:59;4.78;;;1.73;;
83929;SDS011;73959;52.130;5.584;2024-01-16T04:42:25;4.38;;;1.58;;
83929;SDS011;73959;52.130;5.584;2024-01-16T04:44:51;4.10;;;1.38;;
83929;SDS011;73959;52.130;5.584;2024-01-16T04:47:17;4.68;;;1.48;;
83929;SDS011;73959;52.130;5.584;2024-01-16T04:49:43;5.88;;;1.83;;
83929;SDS011;73959;52.130;5.584;2024-01-16T04:52:09;5.00;;;1.73;;
83929;SDS011;73959;52.130;5.584;2024-01-16T04:54:35;10.55;;;2.10;;
83929;SDS011;73959;52.130;5.584;2024-01-16T04:57:02;5.38;;;1.92;;
83929;SDS011;73959;52.130;5.584;2024-01-16T04:59:28;5.03;;;2.10;;
83929;SDS011;73959;52.130;5.584;2024-01-16T05:01:55;6.38;;;1.77;;
83929;SDS011;73959;52.130;5.584;2024-01-16T05:04:21;5.10;;;1.73;;
83929;SDS011;73959;52.130;5.584;2024-01-16T05:06:50;6.93;;;2.50;;
83929;SDS011;73959;52.130;5.584;2024-01-16T05:09:16;6.75;;;2.33;;
83929;SDS011;73959;52.130;5.584;2024-01-16T05:11:44;7.30;;;3.10;;
83929;SDS011;73959;52.130;5.584;2024-01-16T05:14:11;6.57;;;2.75;;
83929;SDS011;73959;52.130;5.584;2024-01-16T05:16:36;6.43;;;2.30;;
83929;SDS011;73959;52.130;5.584;2024-01-16T05:19:02;5.97;;;2.47;;
83929;SDS011;73959;52.130;5.584;2024-01-16T05:21:28;8.15;;;2.58;;
83929;SDS011;73959;52.130;5.584;2024-01-16T05:23:54;12.38;;;5.72;;
83929;SDS011;73959;52.130;5.584;2024-01-16T05:26:21;6.22;;;2.40;;
83929;SDS011;73959;52.130;5.584;2024-01-16T05:28:47;6.53;;;2.60;;
83929;SDS011;73959;52.130;5.584;2024-01-16T05:31:13;10.65;;;3.05;;
83929;SDS011;73959;52.130;5.584;2024-01-16T05:33:39;7.47;;;2.78;;
83929;SDS011;73959;52.130;5.584;2024-01-16T05:36:05;5.82;;;2.35;;
83929;SDS011;73959;52.130;5.584;2024-01-16T05:38:31;5.63;;;2.72;;
83929;SDS011;73959;52.130;5.584;2024-01-16T05:40:58;5.93;;;2.90;;
83929;SDS011;73959;52.130;5.584;2024-01-16T05:43:24;7.35;;;2.80;;
83929;SDS011;73959;52.130;5.584;2024-01-16T05:45:50;5.90;;;2.78;;
83929;SDS011;73959;52.130;5.584;2024-01-16T05:48:16;6.75;;;3.10;;
83929;SDS011;73959;52.130;5.584;2024-01-16T05:50:42;7.50;;;3.15;;
83929;SDS011;73959;52.130;5.584;2024-01-16T05:53:08;6.75;;;3.25;;
83929;SDS011;73959;52.130;5.584;2024-01-16T05:55:34;9.52;;;3.33;;
83929;SDS011;73959;52.130;5.584;2024-01-16T05:58:02;4.97;;;3.55;;
83929;SDS011;73959;52.130;5.584;2024-01-16T06:00:28;8.88;;;3.83;;
83929;SDS011;73959;52.130;5.584;2024-01-16T06:02:54;7.93;;;3.70;;
83929;SDS011;73959;52.130;5.584;2024-01-16T06:05:20;8.02;;;3.92;;
83929;SDS011;73959;52.130;5.584;2024-01-16T06:07:46;8.38;;;4.65;;
83929;SDS011;73959;52.130;5.584;2024-01-16T06:10:12;10.88;;;4.88;;
83929;SDS011;73959;52.130;5.584;2024-01-16T06:12:41;11.50;;;5.05;;
83929;SDS011;73959;52.130;5.584;2024-01-16T06:15:07;10.00;;;4.13;;
83929;SDS011;73959;52.130;5.584;2024-01-16T06:17:34;6.10;;;4.07;;
83929;SDS011;73959;52.130;5.584;2024-01-16T06:20:00;8.10;;;4.55;;
83929;SDS011;73959;52.130;5.584;2024-01-16T06:22:27;10.25;;;5.05;;
83929;SDS011;73959;52.130;5.584;2024-01-16T06:24:53;9.50;;;5.32;;
83929;SDS011;73959;52.130;5.584;2024-01-16T06:27:19;12.52;;;6.90;;
83929;SDS011;73959;52.130;5.584;2024-01-16T06:29:45;10.05;;;6.65;;
83929;SDS011;73959;52.130;5.584;2024-01-16T06:32:11;19.75;;;10.07;;
83929;SDS011;73959;52.130;5.584;2024-01-16T06:34:37;12.23;;;7.20;;
83929;SDS011;73959;52.130;5.584;2024-01-16T06:37:03;10.68;;;6.40;;
83929;SDS011;73959;52.130;5.584;2024-01-16T06:39:29;11.15;;;6.82;;
83929;SDS011;73959;52.130;5.584;2024-01-16T06:41:56;12.45;;;6.50;;
83929;SDS011;73959;52.130;5.584;2024-01-16T06:44:22;12.27;;;7.35;;
83929;SDS011;73959;52.130;5.584;2024-01-16T06:46:48;12.50;;;7.25;;
83929;SDS011;73959;52.130;5.584;2024-01-16T06:49:13;9.98;;;7.40;;
83929;SDS011;73959;52.130;5.584;2024-01-16T06:51:39;12.45;;;7.57;;
83929;SDS011;73959;52.130;5.584;2024-01-16T06:54:05;14.32;;;7.05;;
83929;SDS011;73959;52.130;5.584;2024-01-16T06:56:31;15.25;;;7.95;;
83929;SDS011;73959;52.130;5.584;2024-01-16T06:58:57;11.77;;;7.20;;
83929;SDS011;73959;52.130;5.584;2024-01-16T07:01:23;14.38;;;7.13;;
83929;SDS011;73959;52.130;5.584;2024-01-16T07:03:49;18.08;;;7.30;;
83929;SDS011;73959;52.130;5.584;2024-01-16T07:06:17;14.02;;;8.07;;
83929;SDS011;73959;52.130;5.584;2024-01-16T07:08:43;13.35;;;6.50;;
83929;SDS011;73959;52.130;5.584;2024-01-16T07:11:09;10.80;;;6.07;;
83929;SDS011;73959;52.130;5.584;2024-01-16T07:13:38;16.00;;;7.53;;
83929;SDS011;73959;52.130;5.584;2024-01-16T07:16:04;9.20;;;5.60;;
83929;SDS011;73959;52.130;5.584;2024-01-16T07:18:30;11.15;;;6.10;;
83929;SDS011;73959;52.130;5.584;2024-01-16T07:20:56;10.15;;;6.47;;
83929;SDS011;73959;52.130;5.584;2024-01-16T07:23:22;10.48;;;6.47;;
83929;SDS011;73959;52.130;5.584;2024-01-16T07:25:48;14.68;;;7.78;;
83929;SDS011;73959;52.130;5.584;2024-01-16T07:28:14;12.43;;;7.72;;
83929;SDS011;73959;52.130;5.584;2024-01-16T07:30:40;13.73;;;8.27;;
83929;SDS011;73959;52.130;5.584;2024-01-16T07:33:06;16.17;;;8.73;;
83929;SDS011;73959;52.130;5.584;2024-01-16T07:35:32;17.33;;;9.18;;
83929;SDS011;73959;52.130;5.584;2024-01-16T07:37:58;23.20;;;11.45;;
83929;SDS011;73959;52.130;5.584;2024-01-16T07:40:24;17.65;;;9.88;;
83929;SDS011;73959;52.130;5.584;2024-01-16T07:42:50;17.23;;;9.25;;
83929;SDS011;73959;52.130;5.584;2024-01-16T07:45:16;15.52;;;8.35;;
83929;SDS011;73959;52.130;5.584;2024-01-16T07:47:42;16.70;;;8.32;;
83929;SDS011;73959;52.130;5.584;2024-01-16T07:50:08;16.45;;;8.32;;
83929;SDS011;73959;52.130;5.584;2024-01-16T07:52:35;15.68;;;8.77;;
83929;SDS011;73959;52.130;5.584;2024-01-16T07:55:01;19.00;;;8.82;;
83929;SDS011;73959;52.130;5.584;2024-01-16T07:57:28;17.02;;;8.40;;
83929;SDS011;73959;52.130;5.584;2024-01-16T07:59:54;78.35;;;41.97;;
83929;SDS011;73959;52.130;5.584;2024-01-16T08:02:20;30.80;;;15.10;;
83929;SDS011;73959;52.130;5.584;2024-01-16T08:04:46;21.35;;;11.38;;
83929;SDS011;73959;52.130;5.584;2024-01-16T08:07:12;19.73;;;9.15;;
83929;SDS011;73959;52.130;5.584;2024-01-16T08:09:38;17.30;;;8.93;;
83929;SDS011;73959;52.130;5.584;2024-01-16T08:12:04;20.77;;;8.90;;
83929;SDS011;73959;52.130;5.584;2024-01-16T08:14:30;21.80;;;10.15;;
83929;SDS011;73959;52.130;5.584;2024-01-16T08:16:57;25.23;;;10.27;;
83929;SDS011;73959;52.130;5.584;2024-01-16T08:19:23;23.88;;;10.60;;
83929;SDS011;73959;52.130;5.584;2024-01-16T08:21:49;18.75;;;10.05;;
83929;SDS011;73959;52.130;5.584;2024-01-16T08:24:14;23.38;;;8.95;;
83929;SDS011;73959;52.130;5.584;2024-01-16T08:26:40;18.67;;;9.27;;
83929;SDS011;73959;52.130;5.584;2024-01-16T08:29:06;16.13;;;8.32;;
83929;SDS011;73959;52.130;5.584;2024-01-16T08:31:32;16.75;;;8.50;;
83929;SDS011;73959;52.130;5.584;2024-01-16T08:33:58;21.98;;;9.45;;
83929;SDS011;73959;52.130;5.584;2024-01-16T08:36:24;14.38;;;7.72;;
83929;SDS011;73959;52.130;5.584;2024-01-16T08:38:50;16.58;;;8.65;;
83929;SDS011;73959;52.130;5.584;2024-01-16T08:41:16;13.05;;;7.63;;
83929;SDS011;73959;52.130;5.584;2024-01-16T08:43:42;17.27;;;8.25;;
83929;SDS011;73959;52.130;5.584;2024-01-16T08:46:08;14.35;;;7.85;;
83929;SDS011;73959;52.130;5.584;2024-01-16T08:48:34;25.42;;;8.95;;
83929;SDS011;73959;52.130;5.584;2024-01-16T08:51:01;21.13;;;8.75;;
83929;SDS011;73959;52.130;5.584;2024-01-16T08:53:27;17.58;;;8.75;;
83929;SDS011;73959;52.130;5.584;2024-01-16T08:55:53;14.75;;;7.45;;
83929;SDS011;73959;52.130;5.584;2024-01-16T08:58:19;12.60;;;6.95;;
83929;SDS011;73959;52.130;5.584;2024-01-16T09:00:45;23.58;;;10.05;;
83929;SDS011;73959;52.130;5.584;2024-01-16T09:03:12;22.70;;;10.30;;
83929;SDS011;73959;52.130;5.584;2024-01-16T09:05:38;18.60;;;8.68;;
83929;SDS011;73959;52.130;5.584;2024-01-16T09:08:04;22.65;;;8.73;;
83929;SDS011;73959;52.130;5.584;2024-01-16T09:10:30;19.88;;;8.52;;
83929;SDS011;73959;52.130;5.584;2024-01-16T09:12:56;17.55;;;7.68;;
83929;SDS011;73959;52.130;5.584;2024-01-16T09:15:22;19.00;;;8.43;;
83929;SDS011;73959;52.130;5.584;2024-01-16T09:17:48;17.70;;;6.95;;
83929;SDS011;73959;52.130;5.584;2024-01-16T09:20:14;20.77;;;7.70;;
83929;SDS011;73959;52.130;5.584;2024-01-16T09:22:40;16.95;;;6.85;;
83929;SDS011;73959;52.130;5.584;2024-01-16T09:25:08;18.30;;;6.88;;
83929;SDS011;73959;52.130;5.584;2024-01-16T09:27:34;15.13;;;6.35;;
83929;SDS011;73959;52.130;5.584;2024-01-16T09:30:00;11.82;;;6.13;;
83929;SDS011;73959;52.130;5.584;2024-01-16T09:32:26;16.75;;;6.70;;
83929;SDS011;73959;52.130;5.584;2024-01-16T09:34:52;14.65;;;6.45;;
83929;SDS011;73959;52.130;5.584;2024-01-16T09:37:18;14.10;;;6.13;;
83929;SDS011;73959;52.130;5.584;2024-01-16T09:39:44;13.85;;;5.63;;
83929;SDS011;73959;52.130;5.584;2024-01-16T09:42:10;12.88;;;4.72;;
83929;SDS011;73959;52.130;5.584;2024-01-16T09:44:37;14.75;;;4.90;;
83929;SDS011;73959;52.130;5.584;2024-01-16T09:47:03;14.07;;;6.13;;
83929;SDS011;73959;52.130;5.584;2024-01-16T09:49:29;16.50;;;5.28;;
83929;SDS011;73959;52.130;5.584;2024-01-16T09:51:55;12.27;;;5.65;;
83929;SDS011;73959;52.130;5.584;2024-01-16T09:54:24;13.27;;;5.28;;
83929;SDS011;73959;52.130;5.584;2024-01-16T09:56:51;16.02;;;6.53;;
83929;SDS011;73959;52.130;5.584;2024-01-16T09:59:19;13.10;;;5.60;;
83929;SDS011;73959;52.130;5.584;2024-01-16T10:01:46;14.25;;;5.97;;
83929;SDS011;73959;52.130;5.584;2024-01-16T10:04:13;15.27;;;5.20;;
83929;SDS011;73959;52.130;5.584;2024-01-16T10:06:40;11.88;;;5.43;;
83929;SDS011;73959;52.130;5.584;2024-01-16T10:09:07;12.00;;;5.30;;
83929;SDS011;73959;52.130;5.584;2024-01-16T10:11:33;12.02;;;4.97;;
83929;SDS011;73959;52.130;5.584;2024-01-16T10:13:59;10.32;;;5.30;;
83929;SDS011;73959;52.130;5.584;2024-01-16T10:16:54;14.00;;;5.38;;
83929;SDS011;73959;52.130;5.584;2024-01-16T10:19:12;13.93;;;5.65;;
83929;SDS011;73959;52.130;5.584;2024-01-16T10:21:38;10.35;;;5.07;;
83929;SDS011;73959;52.130;5.584;2024-01-16T10:24:12;12.18;;;5.43;;
83929;SDS011;73959;52.130;5.584;2024-01-16T10:26:38;8.10;;;4.70;;
83929;SDS011;73959;52.130;5.584;2024-01-16T10:29:04;10.50;;;5.63;;
83929;SDS011;73959;52.130;5.584;2024-01-16T10:31:30;14.27;;;5.70;;
83929;SDS011;73959;52.130;5.584;2024-01-16T10:33:56;10.50;;;4.90;;
83929;SDS011;73959;52.130;5.584;2024-01-16T10:36:23;10.48;;;5.15;;
83929;SDS011;73959;52.130;5.584;2024-01-16T10:38:50;11.85;;;5.40;;
83929;SDS011;73959;52.130;5.584;2024-01-16T10:41:23;11.07;;;4.78;;
83929;SDS011;73959;52.130;5.584;2024-01-16T10:44:04;15.20;;;4.80;;
83929;SDS011;73959;52.130;5.584;2024-01-16T10:46:32;9.65;;;4.60;;
83929;SDS011;73959;52.130;5.584;2024-01-16T10:48:59;13.88;;;5.78;;
83929;SDS011;73959;52.130;5.584;2024-01-16T10:51:26;14.57;;;4.70;;
83929;SDS011;73959;52.130;5.584;2024-01-16T10:53:54;10.45;;;5.05;;
83929;SDS011;73959;52.130;5.584;2024-01-16T10:56:22;9.50;;;5.07;;
83929;SDS011;73959;52.130;5.584;2024-01-16T10:58:52;12.57;;;4.38;;
83929;SDS011;73959;52.130;5.584;2024-01-16T11:01:23;9.32;;;4.50;;
83929;SDS011;73959;52.130;5.584;2024-01-16T11:03:50;12.52;;;4.78;;
83929;SDS011;73959;52.130;5.584;2024-01-16T11:06:18;12.02;;;5.60;;
83929;SDS011;73959;52.130;5.584;2024-01-16T11:08:50;11.65;;;4.53;;
83929;SDS011;73959;52.130;5.584;2024-01-16T11:11:16;7.45;;;3.80;;
83929;SDS011;73959;52.130;5.584;2024-01-16T11:13:42;8.95;;;4.03;;
83929;SDS011;73959;52.130;5.584;2024-01-16T11:16:12;8.98;;;4.47;;
83929;SDS011;73959;52.130;5.584;2024-01-16T11:18:38;11.48;;;4.28;;
83929;SDS011;73959;52.130;5.584;2024-01-16T11:21:22;11.95;;;5.25;;
83929;SDS011;73959;52.130;5.584;2024-01-16T11:23:48;12.13;;;6.03;;
83929;SDS011;73959;52.130;5.584;2024-01-16T11:28:56;10.35;;;4.03;;
83929;SDS011;73959;52.130;5.584;2024-01-16T11:33:54;10.93;;;4.70;;
83929;SDS011;73959;52.130;5.584;2024-01-16T11:39:05;7.97;;;3.30;;
83929;SDS011;73959;52.130;5.584;2024-01-16T11:41:50;10.40;;;3.83;;
83929;SDS011;73959;52.130;5.584;2024-01-16T11:47:01;11.50;;;4.03;;
83929;SDS011;73959;52.130;5.584;2024-01-16T11:49:28;9.63;;;3.20;;
83929;SDS011;73959;52.130;5.584;2024-01-16T11:51:56;12.73;;;3.45;;
83929;SDS011;73959;52.130;5.584;2024-01-16T11:54:22;7.72;;;2.95;;
83929;SDS011;73959;52.130;5.584;2024-01-16T12:01:59;10.50;;;3.38;;
83929;SDS011;73959;52.130;5.584;2024-01-16T12:04:27;6.18;;;3.45;;
83929;SDS011;73959;52.130;5.584;2024-01-16T12:06:59;7.97;;;3.33;;
83929;SDS011;73959;52.130;5.584;2024-01-16T12:09:27;9.45;;;3.38;;
83929;SDS011;73959;52.130;5.584;2024-01-16T12:11:59;8.45;;;3.10;;
83929;SDS011;73959;52.130;5.584;2024-01-16T12:14:29;7.72;;;3.45;;
83929;SDS011;73959;52.130;5.584;2024-01-16T12:17:11;7.25;;;2.75;;
83929;SDS011;73959;52.130;5.584;2024-01-16T12:19:37;7.35;;;2.85;;
83929;SDS011;73959;52.130;5.584;2024-01-16T12:22:05;7.32;;;3.22;;
83929;SDS011;73959;52.130;5.584;2024-01-16T12:24:34;6.65;;;3.15;;
83929;SDS011;73959;52.130;5.584;2024-01-16T12:27:00;10.43;;;2.95;;
83929;SDS011;73959;52.130;5.584;2024-01-16T12:29:26;8.32;;;2.83;;
83929;SDS011;73959;52.130;5.584;2024-01-16T12:32:10;12.93;;;4.03;;
83929;SDS011;73959;52.130;5.584;2024-01-16T12:34:46;6.72;;;3.65;;
83929;SDS011;73959;52.130;5.584;2024-01-16T12:37:15;7.40;;;2.97;;
83929;SDS011;73959;52.130;5.584;2024-01-16T12:39:42;11.55;;;3.03;;
83929;SDS011;73959;52.130;5.584;2024-01-16T12:42:09;7.82;;;3.63;;
83929;SDS011;73959;52.130;5.584;2024-01-16T12:44:35;7.40;;;3.45;;
83929;SDS011;73959;52.130;5.584;2024-01-16T12:47:01;7.45;;;3.53;;
83929;SDS011;73959;52.130;5.584;2024-01-16T12:49:27;12.10;;;4.18;;
83929;SDS011;73959;52.130;5.584;2024-01-16T12:54:38;10.32;;;4.55;;
83929;SDS011;73959;52.130;5.584;2024-01-16T12:57:04;12.80;;;4.80;;
83929;SDS011;73959;52.130;5.584;2024-01-16T12:59:31;9.15;;;4.47;;
83929;SDS011;73959;52.130;5.584;2024-01-16T13:01:57;8.98;;;4.82;;
83929;SDS011;73959;52.130;5.584;2024-01-16T13:04:25;10.68;;;5.22;;
83929;SDS011;73959;52.130;5.584;2024-01-16T13:07:00;8.35;;;4.78;;
83929;SDS011;73959;52.130;5.584;2024-01-16T13:09:26;7.43;;;4.30;;
83929;SDS011;73959;52.130;5.584;2024-01-16T13:11:52;11.35;;;4.80;;
83929;SDS011;73959;52.130;5.584;2024-01-16T13:14:20;8.55;;;4.55;;
83929;SDS011;73959;52.130;5.584;2024-01-16T13:16:46;10.00;;;4.90;;
83929;SDS011;73959;52.130;5.584;2024-01-16T13:19:15;10.75;;;4.72;;
83929;SDS011;73959;52.130;5.584;2024-01-16T13:21:41;8.55;;;4.45;;
83929;SDS011;73959;52.130;5.584;2024-01-16T13:24:07;12.57;;;4.57;;
83929;SDS011;73959;52.130;5.584;2024-01-16T13:26:33;12.45;;;4.53;;
83929;SDS011;73959;52.130;5.584;2024-01-16T13:29:00;7.25;;;3.90;;
83929;SDS011;73959;52.130;5.584;2024-01-16T13:31:26;10.93;;;5.13;;
83929;SDS011;73959;52.130;5.584;2024-01-16T13:33:52;10.98;;;4.32;;
83929;SDS011;73959;52.130;5.584;2024-01-16T13:36:18;8.02;;;4.10;;
83929;SDS011;73959;52.130;5.584;2024-01-16T13:38:45;7.22;;;4.10;;
83929;SDS011;73959;52.130;5.584;2024-01-16T13:41:11;10.18;;;4.20;;
83929;SDS011;73959;52.130;5.584;2024-01-16T13:43:37;8.98;;;4.32;;
83929;SDS011;73959;52.130;5.584;2024-01-16T13:46:03;9.60;;;4.28;;
83929;SDS011;73959;52.130;5.584;2024-01-16T13:48:29;12.63;;;5.25;;
83929;SDS011;73959;52.130;5.584;2024-01-16T13:50:55;11.75;;;4.97;;
83929;SDS011;73959;52.130;5.584;2024-01-16T13:53:21;10.82;;;5.15;;
83929;SDS011;73959;52.130;5.584;2024-01-16T13:55:48;10.18;;;5.15;;
83929;SDS011;73959;52.130;5.584;2024-01-16T13:58:14;7.45;;;4.35;;
83929;SDS011;73959;52.130;5.584;2024-01-16T14:00:40;7.72;;;4.03;;
83929;SDS011;73959;52.130;5.584;2024-01-16T14:03:06;10.95;;;4.75;;
83929;SDS011;73959;52.130;5.584;2024-01-16T14:05:32;7.63;;;3.65;;
83929;SDS011;73959;52.130;5.584;2024-01-16T14:07:58;10.57;;;3.97;;
83929;SDS011;73959;52.130;5.584;2024-01-16T14:10:24;7.90;;;3.50;;
83929;SDS011;73959;52.130;5.584;2024-01-16T14:12:50;7.07;;;3.35;;
83929;SDS011;73959;52.130;5.584;2024-01-16T14:15:17;6.88;;;3.45;;
83929;SDS011;73959;52.130;5.584;2024-01-16T14:17:46;7.63;;;3.63;;
83929;SDS011;73959;52.130;5.584;2024-01-16T14:20:12;6.40;;;3.63;;
83929;SDS011;73959;52.130;5.584;2024-01-16T14:22:39;10.65;;;3.67;;
83929;SDS011;73959;52.130;5.584;2024-01-16T14:25:09;12.05;;;4.20;;
83929;SDS011;73959;52.130;5.584;2024-01-16T14:27:40;9.00;;;3.60;;
83929;SDS011;73959;52.130;5.584;2024-01-16T14:30:07;8.55;;;3.65;;
83929;SDS011;73959;52.130;5.584;2024-01-16T14:32:35;8.25;;;3.60;;
83929;SDS011;73959;52.130;5.584;2024-01-16T14:35:02;7.20;;;3.35;;
83929;SDS011;73959;52.130;5.584;2024-01-16T14:37:29;10.40;;;3.80;;
83929;SDS011;73959;52.130;5.584;2024-01-16T14:39:55;10.73;;;4.80;;
83929;SDS011;73959;52.130;5.584;2024-01-16T14:42:21;6.78;;;3.30;;
83929;SDS011;73959;52.130;5.584;2024-01-16T14:44:47;10.00;;;3.10;;
83929;SDS011;73959;52.130;5.584;2024-01-16T14:47:13;7.13;;;3.72;;
83929;SDS011;73959;52.130;5.584;2024-01-16T14:49:39;12.02;;;3.65;;
83929;SDS011;73959;52.130;5.584;2024-01-16T14:52:05;8.15;;;4.53;;
83929;SDS011;73959;52.130;5.584;2024-01-16T14:54:32;10.10;;;4.00;;
83929;SDS011;73959;52.130;5.584;2024-01-16T14:56:58;9.30;;;3.55;;